sensor_id;sensor_type;location;lat;lon;timestamp;P1;durP1;ratioP1;P2;durP2;ratioP2
64873;SDS011;51367;45.204;38.576;2022-11-14T00:00:21;3.35;;;1.58;;
64873;SDS011;51367;45.204;38.576;2022-11-14T00:03:07;2.50;;;2.03;;
64873;SDS011;51367;45.204;38.576;2022-11-14T00:05:52;7.13;;;2.38;;
64873;SDS011;51367;45.204;38.576;2022-11-14T00:08:37;3.03;;;2.03;;
64873;SDS011;51367;45.204;38.576;2022-11-14T00:11:21;2.55;;;2.10;;
64873;SDS011;51367;45.204;38.576;2022-11-14T00:14:06;1.40;;;1.30;;
64873;SDS011;51367;45.204;38.576;2022-11-14T00:16:50;1.67;;;1.55;;
64873;SDS011;51367;45.204;38.576;2022-11-14T00:19:35;1.52;;;1.42;;
64873;SDS011;51367;45.204;38.576;2022-11-14T00:22:19;1.40;;;1.30;;
64873;SDS011;51367;45.204;38.576;2022-11-14T00:25:04;1.70;;;1.60;;
64873;SDS011;51367;45.204;38.576;2022-11-14T00:27:50;3.72;;;1.48;;
64873;SDS011;51367;45.204;38.576;2022-11-14T00:30:34;5.95;;;1.80;;
64873;SDS011;51367;45.204;38.576;2022-11-14T00:33:19;2.63;;;1.88;;
64873;SDS011;51367;45.204;38.576;2022-11-14T00:36:04;1.52;;;1.40;;
64873;SDS011;51367;45.204;38.576;2022-11-14T00:38:51;1.75;;;1.65;;
64873;SDS011;51367;45.204;38.576;2022-11-14T00:41:37;2.67;;;1.38;;
64873;SDS011;51367;45.204;38.576;2022-11-14T00:44:21;2.92;;;1.90;;
64873;SDS011;51367;45.204;38.576;2022-11-14T00:47:06;2.05;;;1.95;;
64873;SDS011;51367;45.204;38.576;2022-11-14T00:49:50;1.42;;;1.33;;
64873;SDS011;51367;45.204;38.576;2022-11-14T00:52:35;1.80;;;1.70;;
64873;SDS011;51367;45.204;38.576;2022-11-14T00:55:19;1.77;;;1.55;;
64873;SDS011;51367;45.204;38.576;2022-11-14T00:58:04;1.85;;;1.52;;
64873;SDS011;51367;45.204;38.576;2022-11-14T01:00:48;3.80;;;2.22;;
64873;SDS011;51367;45.204;38.576;2022-11-14T01:03:34;1.50;;;1.42;;
64873;SDS011;51367;45.204;38.576;2022-11-14T01:06:18;2.95;;;1.92;;
64873;SDS011;51367;45.204;38.576;2022-11-14T01:09:03;2.08;;;1.48;;
64873;SDS011;51367;45.204;38.576;2022-11-14T01:11:47;3.13;;;1.75;;
64873;SDS011;51367;45.204;38.576;2022-11-14T01:14:32;1.65;;;1.55;;
64873;SDS011;51367;45.204;38.576;2022-11-14T01:17:16;2.72;;;2.08;;
64873;SDS011;51367;45.204;38.576;2022-11-14T01:20:01;2.13;;;1.92;;
64873;SDS011;51367;45.204;38.576;2022-11-14T01:22:45;2.20;;;2.08;;
64873;SDS011;51367;45.204;38.576;2022-11-14T01:25:31;3.03;;;1.33;;
64873;SDS011;51367;45.204;38.576;2022-11-14T01:28:17;1.88;;;1.73;;
64873;SDS011;51367;45.204;38.576;2022-11-14T01:31:12;1.67;;;1.55;;
64873;SDS011;51367;45.204;38.576;2022-11-14T01:33:59;1.45;;;1.35;;
64873;SDS011;51367;45.204;38.576;2022-11-14T01:36:44;2.03;;;1.60;;
64873;SDS011;51367;45.204;38.576;2022-11-14T01:39:29;2.63;;;1.48;;
64873;SDS011;51367;45.204;38.576;2022-11-14T01:42:13;3.75;;;1.70;;
64873;SDS011;51367;45.204;38.576;2022-11-14T01:44:58;3.65;;;1.35;;
64873;SDS011;51367;45.204;38.576;2022-11-14T01:47:42;3.13;;;2.15;;
64873;SDS011;51367;45.204;38.576;2022-11-14T01:50:27;13.48;;;1.80;;
64873;SDS011;51367;45.204;38.576;2022-11-14T01:53:11;6.10;;;2.30;;
64873;SDS011;51367;45.204;38.576;2022-11-14T01:55:57;2.45;;;1.90;;
64873;SDS011;51367;45.204;38.576;2022-11-14T01:58:45;3.13;;;2.10;;
64873;SDS011;51367;45.204;38.576;2022-11-14T02:01:35;3.35;;;1.60;;
64873;SDS011;51367;45.204;38.576;2022-11-14T02:04:29;2.78;;;2.05;;
64873;SDS011;51367;45.204;38.576;2022-11-14T02:07:18;2.50;;;2.30;;
64873;SDS011;51367;45.204;38.576;2022-11-14T02:10:06;2.85;;;1.95;;
64873;SDS011;51367;45.204;38.576;2022-11-14T02:12:52;3.30;;;1.70;;
64873;SDS011;51367;45.204;38.576;2022-11-14T02:15:37;1.02;;;1.02;;
64873;SDS011;51367;45.204;38.576;2022-11-14T02:18:22;3.08;;;2.00;;
64873;SDS011;51367;45.204;38.576;2022-11-14T02:21:07;2.60;;;1.48;;
64873;SDS011;51367;45.204;38.576;2022-11-14T02:23:51;7.78;;;1.63;;
64873;SDS011;51367;45.204;38.576;2022-11-14T02:26:36;2.15;;;2.03;;
64873;SDS011;51367;45.204;38.576;2022-11-14T02:29:21;2.85;;;2.13;;
64873;SDS011;51367;45.204;38.576;2022-11-14T02:32:06;15.05;;;2.28;;
64873;SDS011;51367;45.204;38.576;2022-11-14T02:34:51;14.18;;;1.70;;
64873;SDS011;51367;45.204;38.576;2022-11-14T02:37:35;1.83;;;1.73;;
64873;SDS011;51367;45.204;38.576;2022-11-14T02:40:20;5.78;;;2.15;;
64873;SDS011;51367;45.204;38.576;2022-11-14T02:43:05;2.63;;;2.30;;
64873;SDS011;51367;45.204;38.576;2022-11-14T02:45:49;2.10;;;1.95;;
64873;SDS011;51367;45.204;38.576;2022-11-14T02:48:34;2.20;;;2.00;;
64873;SDS011;51367;45.204;38.576;2022-11-14T02:51:18;2.03;;;1.60;;
64873;SDS011;51367;45.204;38.576;2022-11-14T02:54:02;2.00;;;1.80;;
64873;SDS011;51367;45.204;38.576;2022-11-14T02:56:47;3.17;;;2.08;;
64873;SDS011;51367;45.204;38.576;2022-11-14T02:59:32;2.05;;;1.80;;
64873;SDS011;51367;45.204;38.576;2022-11-14T03:02:16;1.80;;;1.67;;
64873;SDS011;51367;45.204;38.576;2022-11-14T03:05:01;6.38;;;1.52;;
64873;SDS011;51367;45.204;38.576;2022-11-14T03:07:46;2.00;;;1.90;;
64873;SDS011;51367;45.204;38.576;2022-11-14T03:10:30;2.00;;;1.80;;
64873;SDS011;51367;45.204;38.576;2022-11-14T03:13:15;1.58;;;1.48;;
64873;SDS011;51367;45.204;38.576;2022-11-14T03:16:06;1.58;;;1.48;;
64873;SDS011;51367;45.204;38.576;2022-11-14T03:18:52;3.40;;;2.10;;
64873;SDS011;51367;45.204;38.576;2022-11-14T03:21:36;2.10;;;2.00;;
64873;SDS011;51367;45.204;38.576;2022-11-14T03:24:21;2.33;;;2.13;;
64873;SDS011;51367;45.204;38.576;2022-11-14T03:27:05;6.90;;;2.08;;
64873;SDS011;51367;45.204;38.576;2022-11-14T03:29:50;2.83;;;2.05;;
64873;SDS011;51367;45.204;38.576;2022-11-14T03:32:34;4.40;;;1.88;;
64873;SDS011;51367;45.204;38.576;2022-11-14T03:35:18;1.85;;;1.50;;
64873;SDS011;51367;45.204;38.576;2022-11-14T03:38:03;1.80;;;1.70;;
64873;SDS011;51367;45.204;38.576;2022-11-14T03:40:48;1.98;;;1.88;;
64873;SDS011;51367;45.204;38.576;2022-11-14T03:43:33;2.15;;;1.95;;
64873;SDS011;51367;45.204;38.576;2022-11-14T03:46:18;2.75;;;2.42;;
64873;SDS011;51367;45.204;38.576;2022-11-14T03:49:03;2.15;;;2.00;;
64873;SDS011;51367;45.204;38.576;2022-11-14T03:51:47;2.00;;;1.73;;
64873;SDS011;51367;45.204;38.576;2022-11-14T03:54:31;3.70;;;2.00;;
64873;SDS011;51367;45.204;38.576;2022-11-14T03:57:16;28.13;;;2.33;;
64873;SDS011;51367;45.204;38.576;2022-11-14T04:00:00;4.78;;;2.70;;
64873;SDS011;51367;45.204;38.576;2022-11-14T04:02:45;1.85;;;1.70;;
64873;SDS011;51367;45.204;38.576;2022-11-14T04:05:30;3.47;;;2.80;;
64873;SDS011;51367;45.204;38.576;2022-11-14T04:08:15;3.15;;;2.42;;
64873;SDS011;51367;45.204;38.576;2022-11-14T04:11:00;2.13;;;2.03;;
64873;SDS011;51367;45.204;38.576;2022-11-14T04:13:45;18.83;;;2.53;;
64873;SDS011;51367;45.204;38.576;2022-11-14T04:16:29;8.55;;;2.55;;
64873;SDS011;51367;45.204;38.576;2022-11-14T04:19:14;2.03;;;1.83;;
64873;SDS011;51367;45.204;38.576;2022-11-14T04:21:58;5.88;;;2.22;;
64873;SDS011;51367;45.204;38.576;2022-11-14T04:24:43;2.33;;;1.95;;
64873;SDS011;51367;45.204;38.576;2022-11-14T04:27:27;14.15;;;2.28;;
64873;SDS011;51367;45.204;38.576;2022-11-14T04:30:13;2.65;;;1.92;;
64873;SDS011;51367;45.204;38.576;2022-11-14T04:32:58;2.95;;;1.77;;
64873;SDS011;51367;45.204;38.576;2022-11-14T04:35:43;2.65;;;2.20;;
64873;SDS011;51367;45.204;38.576;2022-11-14T04:38:27;1.65;;;1.55;;
64873;SDS011;51367;45.204;38.576;2022-11-14T04:41:12;2.72;;;2.05;;
64873;SDS011;51367;45.204;38.576;2022-11-14T04:43:57;8.52;;;3.45;;
64873;SDS011;51367;45.204;38.576;2022-11-14T04:46:42;3.75;;;1.77;;
64873;SDS011;51367;45.204;38.576;2022-11-14T04:49:26;18.25;;;2.72;;
64873;SDS011;51367;45.204;38.576;2022-11-14T04:52:11;3.53;;;2.25;;
64873;SDS011;51367;45.204;38.576;2022-11-14T04:54:55;3.15;;;2.40;;
64873;SDS011;51367;45.204;38.576;2022-11-14T04:57:40;2.38;;;2.17;;
64873;SDS011;51367;45.204;38.576;2022-11-14T05:00:24;3.22;;;2.47;;
64873;SDS011;51367;45.204;38.576;2022-11-14T05:03:09;4.50;;;2.55;;
64873;SDS011;51367;45.204;38.576;2022-11-14T05:05:53;15.65;;;2.45;;
64873;SDS011;51367;45.204;38.576;2022-11-14T05:08:43;6.40;;;2.47;;
64873;SDS011;51367;45.204;38.576;2022-11-14T05:11:28;14.02;;;3.05;;
64873;SDS011;51367;45.204;38.576;2022-11-14T05:14:12;2.00;;;1.90;;
64873;SDS011;51367;45.204;38.576;2022-11-14T05:16:57;5.53;;;2.95;;
64873;SDS011;51367;45.204;38.576;2022-11-14T05:19:41;2.20;;;2.05;;
64873;SDS011;51367;45.204;38.576;2022-11-14T05:22:26;4.40;;;2.40;;
64873;SDS011;51367;45.204;38.576;2022-11-14T05:25:10;2.90;;;2.55;;
64873;SDS011;51367;45.204;38.576;2022-11-14T05:27:55;4.65;;;2.05;;
64873;SDS011;51367;45.204;38.576;2022-11-14T05:30:39;2.15;;;2.03;;
64873;SDS011;51367;45.204;38.576;2022-11-14T05:33:24;4.55;;;2.88;;
64873;SDS011;51367;45.204;38.576;2022-11-14T05:36:09;19.52;;;3.17;;
64873;SDS011;51367;45.204;38.576;2022-11-14T05:38:56;3.80;;;2.47;;
64873;SDS011;51367;45.204;38.576;2022-11-14T05:41:41;15.15;;;2.90;;
64873;SDS011;51367;45.204;38.576;2022-11-14T05:44:25;1.70;;;1.52;;
64873;SDS011;51367;45.204;38.576;2022-11-14T05:47:10;2.92;;;2.42;;
64873;SDS011;51367;45.204;38.576;2022-11-14T05:49:54;25.17;;;3.38;;
64873;SDS011;51367;45.204;38.576;2022-11-14T05:52:38;2.90;;;2.42;;
64873;SDS011;51367;45.204;38.576;2022-11-14T05:55:23;5.97;;;3.42;;
64873;SDS011;51367;45.204;38.576;2022-11-14T05:58:07;3.25;;;3.03;;
64873;SDS011;51367;45.204;38.576;2022-11-14T06:00:52;13.30;;;3.35;;
64873;SDS011;51367;45.204;38.576;2022-11-14T06:03:44;5.25;;;2.95;;
64873;SDS011;51367;45.204;38.576;2022-11-14T06:06:30;7.90;;;4.25;;
64873;SDS011;51367;45.204;38.576;2022-11-14T06:09:15;26.45;;;3.50;;
64873;SDS011;51367;45.204;38.576;2022-11-14T06:11:59;5.85;;;3.83;;
64873;SDS011;51367;45.204;38.576;2022-11-14T06:14:46;8.13;;;4.90;;
64873;SDS011;51367;45.204;38.576;2022-11-14T06:17:30;10.52;;;6.97;;
64873;SDS011;51367;45.204;38.576;2022-11-14T06:20:14;9.93;;;7.75;;
64873;SDS011;51367;45.204;38.576;2022-11-14T06:22:59;6.25;;;5.57;;
64873;SDS011;51367;45.204;38.576;2022-11-14T06:25:43;5.80;;;5.18;;
64873;SDS011;51367;45.204;38.576;2022-11-14T06:28:28;15.48;;;4.60;;
64873;SDS011;51367;45.204;38.576;2022-11-14T06:31:12;8.27;;;4.68;;
64873;SDS011;51367;45.204;38.576;2022-11-14T06:33:57;5.63;;;4.45;;
64873;SDS011;51367;45.204;38.576;2022-11-14T06:36:41;3.63;;;3.30;;
64873;SDS011;51367;45.204;38.576;2022-11-14T06:39:26;4.15;;;3.67;;
64873;SDS011;51367;45.204;38.576;2022-11-14T06:42:10;4.15;;;3.65;;
64873;SDS011;51367;45.204;38.576;2022-11-14T06:44:55;4.70;;;4.30;;
64873;SDS011;51367;45.204;38.576;2022-11-14T06:47:39;6.68;;;4.85;;
64873;SDS011;51367;45.204;38.576;2022-11-14T06:50:24;6.05;;;5.45;;
64873;SDS011;51367;45.204;38.576;2022-11-14T06:53:08;14.65;;;5.50;;
64873;SDS011;51367;45.204;38.576;2022-11-14T06:56:11;4.63;;;3.88;;
64873;SDS011;51367;45.204;38.576;2022-11-14T06:58:57;10.88;;;4.30;;
64873;SDS011;51367;45.204;38.576;2022-11-14T07:01:42;12.55;;;6.88;;
64873;SDS011;51367;45.204;38.576;2022-11-14T07:04:26;20.27;;;11.02;;
64873;SDS011;51367;45.204;38.576;2022-11-14T07:07:11;10.65;;;5.93;;
64873;SDS011;51367;45.204;38.576;2022-11-14T07:09:55;6.70;;;5.68;;
64873;SDS011;51367;45.204;38.576;2022-11-14T07:12:41;6.95;;;4.75;;
64873;SDS011;51367;45.204;38.576;2022-11-14T07:15:26;5.18;;;4.68;;
64873;SDS011;51367;45.204;38.576;2022-11-14T07:18:10;15.93;;;6.88;;
64873;SDS011;51367;45.204;38.576;2022-11-14T07:20:58;5.25;;;4.75;;
64873;SDS011;51367;45.204;38.576;2022-11-14T07:23:44;6.13;;;5.28;;
64873;SDS011;51367;45.204;38.576;2022-11-14T07:26:29;10.32;;;6.32;;
64873;SDS011;51367;45.204;38.576;2022-11-14T07:29:13;12.43;;;8.52;;
64873;SDS011;51367;45.204;38.576;2022-11-14T07:31:58;21.13;;;9.90;;
64873;SDS011;51367;45.204;38.576;2022-11-14T07:34:42;20.58;;;10.48;;
64873;SDS011;51367;45.204;38.576;2022-11-14T07:37:26;6.93;;;4.95;;
64873;SDS011;51367;45.204;38.576;2022-11-14T07:40:11;3.53;;;3.22;;
64873;SDS011;51367;45.204;38.576;2022-11-14T07:42:56;5.22;;;4.65;;
64873;SDS011;51367;45.204;38.576;2022-11-14T07:45:43;9.40;;;4.72;;
64873;SDS011;51367;45.204;38.576;2022-11-14T07:48:28;10.55;;;5.15;;
64873;SDS011;51367;45.204;38.576;2022-11-14T07:51:16;10.48;;;5.10;;
64873;SDS011;51367;45.204;38.576;2022-11-14T07:54:03;3.88;;;3.58;;
64873;SDS011;51367;45.204;38.576;2022-11-14T07:56:47;2.83;;;2.53;;
64873;SDS011;51367;45.204;38.576;2022-11-14T07:59:31;7.15;;;6.10;;
64873;SDS011;51367;45.204;38.576;2022-11-14T08:02:16;6.40;;;5.63;;
64873;SDS011;51367;45.204;38.576;2022-11-14T08:05:00;4.28;;;3.88;;
64873;SDS011;51367;45.204;38.576;2022-11-14T08:07:45;7.18;;;4.65;;
64873;SDS011;51367;45.204;38.576;2022-11-14T08:10:30;9.63;;;6.78;;
64873;SDS011;51367;45.204;38.576;2022-11-14T08:13:14;6.40;;;5.15;;
64873;SDS011;51367;45.204;38.576;2022-11-14T08:16:03;5.68;;;4.95;;
64873;SDS011;51367;45.204;38.576;2022-11-14T08:18:48;4.50;;;4.10;;
64873;SDS011;51367;45.204;38.576;2022-11-14T08:21:33;6.50;;;3.55;;
64873;SDS011;51367;45.204;38.576;2022-11-14T08:24:17;2.95;;;2.75;;
64873;SDS011;51367;45.204;38.576;2022-11-14T08:27:02;5.95;;;5.22;;
64873;SDS011;51367;45.204;38.576;2022-11-14T08:29:46;9.50;;;4.78;;
64873;SDS011;51367;45.204;38.576;2022-11-14T08:32:30;6.18;;;4.13;;
64873;SDS011;51367;45.204;38.576;2022-11-14T08:35:15;7.70;;;5.13;;
64873;SDS011;51367;45.204;38.576;2022-11-14T08:38:00;5.30;;;4.80;;
64873;SDS011;51367;45.204;38.576;2022-11-14T08:40:45;3.78;;;3.00;;
64873;SDS011;51367;45.204;38.576;2022-11-14T08:43:30;12.70;;;5.22;;
64873;SDS011;51367;45.204;38.576;2022-11-14T08:46:15;7.03;;;3.78;;
64873;SDS011;51367;45.204;38.576;2022-11-14T08:48:59;8.25;;;5.07;;
64873;SDS011;51367;45.204;38.576;2022-11-14T08:51:44;5.22;;;4.43;;
64873;SDS011;51367;45.204;38.576;2022-11-14T08:54:28;6.55;;;5.05;;
64873;SDS011;51367;45.204;38.576;2022-11-14T08:57:13;8.27;;;4.05;;
64873;SDS011;51367;45.204;38.576;2022-11-14T08:59:58;7.45;;;5.10;;
64873;SDS011;51367;45.204;38.576;2022-11-14T09:02:42;6.25;;;5.22;;
64873;SDS011;51367;45.204;38.576;2022-11-14T09:05:27;8.50;;;5.65;;
64873;SDS011;51367;45.204;38.576;2022-11-14T09:08:11;10.73;;;6.25;;
64873;SDS011;51367;45.204;38.576;2022-11-14T09:10:58;7.43;;;5.20;;
64873;SDS011;51367;45.204;38.576;2022-11-14T09:13:45;6.70;;;5.10;;
64873;SDS011;51367;45.204;38.576;2022-11-14T09:16:29;2.38;;;2.17;;
64873;SDS011;51367;45.204;38.576;2022-11-14T09:19:13;6.70;;;4.65;;
64873;SDS011;51367;45.204;38.576;2022-11-14T09:21:58;11.57;;;7.20;;
64873;SDS011;51367;45.204;38.576;2022-11-14T09:24:43;6.07;;;5.47;;
64873;SDS011;51367;45.204;38.576;2022-11-14T09:27:30;9.30;;;5.85;;
64873;SDS011;51367;45.204;38.576;2022-11-14T09:30:14;7.15;;;6.07;;
64873;SDS011;51367;45.204;38.576;2022-11-14T09:32:59;4.75;;;4.28;;
64873;SDS011;51367;45.204;38.576;2022-11-14T09:35:44;7.32;;;5.90;;
64873;SDS011;51367;45.204;38.576;2022-11-14T09:38:29;4.30;;;3.90;;
64873;SDS011;51367;45.204;38.576;2022-11-14T09:41:20;5.97;;;4.63;;
64873;SDS011;51367;45.204;38.576;2022-11-14T09:44:22;8.90;;;5.88;;
64873;SDS011;51367;45.204;38.576;2022-11-14T09:50:31;5.53;;;4.00;;
64873;SDS011;51367;45.204;38.576;2022-11-14T09:53:33;12.52;;;9.88;;
64873;SDS011;51367;45.204;38.576;2022-11-14T09:56:27;14.75;;;9.07;;
64873;SDS011;51367;45.204;38.576;2022-11-14T09:59:12;10.85;;;6.35;;
64873;SDS011;51367;45.204;38.576;2022-11-14T10:09:12;25.88;;;17.73;;
64873;SDS011;51367;45.204;38.576;2022-11-14T10:14:44;13.48;;;9.25;;
64873;SDS011;51367;45.204;38.576;2022-11-14T10:23:28;58.78;;;29.65;;
64873;SDS011;51367;45.204;38.576;2022-11-14T10:35:33;20.38;;;15.18;;
64873;SDS011;51367;45.204;38.576;2022-11-14T10:38:38;184.43;;;79.75;;
64873;SDS011;51367;45.204;38.576;2022-11-14T10:41:31;43.72;;;24.90;;
64873;SDS011;51367;45.204;38.576;2022-11-14T10:44:17;453.02;;;201.95;;
64873;SDS011;51367;45.204;38.576;2022-11-14T10:47:12;407.95;;;166.45;;
64873;SDS011;51367;45.204;38.576;2022-11-14T10:49:59;49.67;;;24.65;;
64873;SDS011;51367;45.204;38.576;2022-11-14T10:52:57;38.10;;;25.00;;
64873;SDS011;51367;45.204;38.576;2022-11-14T10:55:48;44.88;;;26.88;;
64873;SDS011;51367;45.204;38.576;2022-11-14T10:58:34;21.45;;;14.10;;
64873;SDS011;51367;45.204;38.576;2022-11-14T11:01:37;24.20;;;12.10;;
64873;SDS011;51367;45.204;38.576;2022-11-14T11:04:42;29.52;;;18.67;;
64873;SDS011;51367;45.204;38.576;2022-11-14T11:07:28;36.92;;;18.92;;
64873;SDS011;51367;45.204;38.576;2022-11-14T11:10:32;52.47;;;30.40;;
64873;SDS011;51367;45.204;38.576;2022-11-14T11:13:50;35.15;;;18.02;;
64873;SDS011;51367;45.204;38.576;2022-11-14T11:16:40;29.60;;;17.98;;
64873;SDS011;51367;45.204;38.576;2022-11-14T11:19:25;13.77;;;10.82;;
64873;SDS011;51367;45.204;38.576;2022-11-14T11:22:29;32.47;;;19.58;;
64873;SDS011;51367;45.204;38.576;2022-11-14T11:25:24;48.10;;;25.70;;
64873;SDS011;51367;45.204;38.576;2022-11-14T11:28:13;175.98;;;76.70;;
64873;SDS011;51367;45.204;38.576;2022-11-14T11:31:01;334.48;;;133.52;;
64873;SDS011;51367;45.204;38.576;2022-11-14T11:33:45;189.02;;;76.50;;
64873;SDS011;51367;45.204;38.576;2022-11-14T11:36:30;23.42;;;14.30;;
64873;SDS011;51367;45.204;38.576;2022-11-14T11:39:22;10.63;;;8.60;;
64873;SDS011;51367;45.204;38.576;2022-11-14T11:42:17;11.77;;;9.43;;
64873;SDS011;51367;45.204;38.576;2022-11-14T11:45:17;31.27;;;17.30;;
64873;SDS011;51367;45.204;38.576;2022-11-14T11:48:18;33.38;;;17.67;;
64873;SDS011;51367;45.204;38.576;2022-11-14T11:51:05;32.25;;;17.00;;
64873;SDS011;51367;45.204;38.576;2022-11-14T11:53:57;23.63;;;14.52;;
64873;SDS011;51367;45.204;38.576;2022-11-14T11:56:47;14.60;;;7.57;;
64873;SDS011;51367;45.204;38.576;2022-11-14T11:59:36;28.67;;;15.18;;
64873;SDS011;51367;45.204;38.576;2022-11-14T12:02:28;16.20;;;10.30;;
64873;SDS011;51367;45.204;38.576;2022-11-14T12:11:16;37.50;;;25.60;;
64873;SDS011;51367;45.204;38.576;2022-11-14T12:14:24;20.27;;;12.60;;
64873;SDS011;51367;45.204;38.576;2022-11-14T12:23:33;22.77;;;13.95;;
64873;SDS011;51367;45.204;38.576;2022-11-14T12:26:47;42.75;;;28.10;;
64873;SDS011;51367;45.204;38.576;2022-11-14T12:32:39;79.50;;;37.50;;
64873;SDS011;51367;45.204;38.576;2022-11-14T12:35:27;33.72;;;20.48;;
64873;SDS011;51367;45.204;38.576;2022-11-14T12:38:15;23.30;;;13.43;;
64873;SDS011;51367;45.204;38.576;2022-11-14T12:41:04;77.13;;;33.72;;
64873;SDS011;51367;45.204;38.576;2022-11-14T12:43:50;455.30;;;211.18;;
64873;SDS011;51367;45.204;38.576;2022-11-14T12:50:00;21.33;;;16.55;;
64873;SDS011;51367;45.204;38.576;2022-11-14T12:58:24;13.13;;;9.23;;
64873;SDS011;51367;45.204;38.576;2022-11-14T13:10:27;24.33;;;14.15;;
64873;SDS011;51367;45.204;38.576;2022-11-14T13:13:14;42.92;;;30.50;;
64873;SDS011;51367;45.204;38.576;2022-11-14T13:16:25;26.25;;;16.60;;
64873;SDS011;51367;45.204;38.576;2022-11-14T13:19:32;42.42;;;22.45;;
64873;SDS011;51367;45.204;38.576;2022-11-14T13:25:23;33.80;;;21.83;;
64873;SDS011;51367;45.204;38.576;2022-11-14T13:31:24;142.93;;;60.40;;
64873;SDS011;51367;45.204;38.576;2022-11-14T13:34:27;429.23;;;166.30;;
64873;SDS011;51367;45.204;38.576;2022-11-14T13:52:47;110.88;;;50.63;;
64873;SDS011;51367;45.204;38.576;2022-11-14T13:58:57;195.63;;;78.82;;
64873;SDS011;51367;45.204;38.576;2022-11-14T14:01:57;156.63;;;66.47;;
64873;SDS011;51367;45.204;38.576;2022-11-14T14:05:00;181.45;;;71.03;;
64873;SDS011;51367;45.204;38.576;2022-11-14T14:14:27;97.28;;;46.30;;
64873;SDS011;51367;45.204;38.576;2022-11-14T14:23:23;59.63;;;31.05;;
64873;SDS011;51367;45.204;38.576;2022-11-14T14:26:52;86.47;;;37.83;;
64873;SDS011;51367;45.204;38.576;2022-11-14T14:29:46;67.40;;;34.25;;
64873;SDS011;51367;45.204;38.576;2022-11-14T14:36:15;79.68;;;33.00;;
64873;SDS011;51367;45.204;38.576;2022-11-14T14:42:23;131.82;;;52.45;;
64873;SDS011;51367;45.204;38.576;2022-11-14T14:45:13;106.80;;;44.60;;
64873;SDS011;51367;45.204;38.576;2022-11-14T14:50:58;98.05;;;42.47;;
64873;SDS011;51367;45.204;38.576;2022-11-14T14:53:49;82.13;;;33.78;;
64873;SDS011;51367;45.204;38.576;2022-11-14T14:56:36;46.20;;;27.58;;
64873;SDS011;51367;45.204;38.576;2022-11-14T14:59:22;57.55;;;29.67;;
64873;SDS011;51367;45.204;38.576;2022-11-14T15:02:16;61.03;;;29.65;;
64873;SDS011;51367;45.204;38.576;2022-11-14T15:05:04;75.47;;;38.65;;
64873;SDS011;51367;45.204;38.576;2022-11-14T15:07:50;74.00;;;32.72;;
64873;SDS011;51367;45.204;38.576;2022-11-14T15:10:36;57.75;;;29.65;;
64873;SDS011;51367;45.204;38.576;2022-11-14T15:13:22;48.40;;;26.75;;
64873;SDS011;51367;45.204;38.576;2022-11-14T15:16:07;43.47;;;19.52;;
64873;SDS011;51367;45.204;38.576;2022-11-14T15:18:53;29.75;;;14.55;;
64873;SDS011;51367;45.204;38.576;2022-11-14T15:21:39;20.67;;;13.50;;
64873;SDS011;51367;45.204;38.576;2022-11-14T15:24:25;23.98;;;14.88;;
64873;SDS011;51367;45.204;38.576;2022-11-14T15:27:17;16.63;;;9.90;;
64873;SDS011;51367;45.204;38.576;2022-11-14T15:30:04;27.10;;;10.60;;
64873;SDS011;51367;45.204;38.576;2022-11-14T15:32:51;12.82;;;7.38;;
64873;SDS011;51367;45.204;38.576;2022-11-14T15:35:38;8.68;;;7.28;;
64873;SDS011;51367;45.204;38.576;2022-11-14T15:38:23;12.73;;;9.85;;
64873;SDS011;51367;45.204;38.576;2022-11-14T15:44:26;20.95;;;11.25;;
64873;SDS011;51367;45.204;38.576;2022-11-14T15:47:27;16.42;;;9.02;;
64873;SDS011;51367;45.204;38.576;2022-11-14T15:55:46;36.15;;;12.98;;
64873;SDS011;51367;45.204;38.576;2022-11-14T15:58:31;21.25;;;12.15;;
64873;SDS011;51367;45.204;38.576;2022-11-14T16:01:17;21.73;;;12.85;;
64873;SDS011;51367;45.204;38.576;2022-11-14T16:04:13;18.02;;;9.20;;
64873;SDS011;51367;45.204;38.576;2022-11-14T16:07:00;16.48;;;10.73;;
64873;SDS011;51367;45.204;38.576;2022-11-14T16:09:44;24.60;;;12.55;;
64873;SDS011;51367;45.204;38.576;2022-11-14T16:12:29;14.35;;;10.75;;
64873;SDS011;51367;45.204;38.576;2022-11-14T16:15:13;34.67;;;13.75;;
64873;SDS011;51367;45.204;38.576;2022-11-14T16:17:59;28.55;;;16.30;;
64873;SDS011;51367;45.204;38.576;2022-11-14T16:20:43;39.55;;;19.13;;
64873;SDS011;51367;45.204;38.576;2022-11-14T16:23:28;40.17;;;22.35;;
64873;SDS011;51367;45.204;38.576;2022-11-14T16:26:12;74.85;;;27.98;;
64873;SDS011;51367;45.204;38.576;2022-11-14T16:28:57;64.25;;;27.75;;
64873;SDS011;51367;45.204;38.576;2022-11-14T16:31:41;113.65;;;35.20;;
64873;SDS011;51367;45.204;38.576;2022-11-14T16:34:26;74.10;;;31.88;;
64873;SDS011;51367;45.204;38.576;2022-11-14T16:37:11;79.18;;;31.95;;
64873;SDS011;51367;45.204;38.576;2022-11-14T16:39:56;50.00;;;33.53;;
64873;SDS011;51367;45.204;38.576;2022-11-14T16:42:41;63.30;;;32.85;;
64873;SDS011;51367;45.204;38.576;2022-11-14T16:45:25;69.15;;;37.05;;
64873;SDS011;51367;45.204;38.576;2022-11-14T16:48:10;67.47;;;35.17;;
64873;SDS011;51367;45.204;38.576;2022-11-14T16:50:55;64.38;;;34.63;;
64873;SDS011;51367;45.204;38.576;2022-11-14T16:53:43;69.20;;;32.28;;
64873;SDS011;51367;45.204;38.576;2022-11-14T16:56:28;72.93;;;35.65;;
64873;SDS011;51367;45.204;38.576;2022-11-14T16:59:13;86.75;;;38.75;;
64873;SDS011;51367;45.204;38.576;2022-11-14T17:01:57;108.75;;;45.85;;
64873;SDS011;51367;45.204;38.576;2022-11-14T17:04:42;148.38;;;51.55;;
64873;SDS011;51367;45.204;38.576;2022-11-14T17:07:28;182.68;;;61.05;;
64873;SDS011;51367;45.204;38.576;2022-11-14T17:10:15;152.18;;;59.13;;
64873;SDS011;51367;45.204;38.576;2022-11-14T17:13:00;128.35;;;37.83;;
64873;SDS011;51367;45.204;38.576;2022-11-14T17:15:44;110.32;;;42.58;;
64873;SDS011;51367;45.204;38.576;2022-11-14T17:18:28;100.05;;;43.00;;
64873;SDS011;51367;45.204;38.576;2022-11-14T17:21:13;96.38;;;41.47;;
64873;SDS011;51367;45.204;38.576;2022-11-14T17:23:59;98.20;;;40.80;;
64873;SDS011;51367;45.204;38.576;2022-11-14T17:26:44;98.78;;;39.72;;
64873;SDS011;51367;45.204;38.576;2022-11-14T17:29:29;94.68;;;37.53;;
64873;SDS011;51367;45.204;38.576;2022-11-14T17:32:14;87.93;;;38.42;;
64873;SDS011;51367;45.204;38.576;2022-11-14T17:34:58;86.93;;;41.05;;
64873;SDS011;51367;45.204;38.576;2022-11-14T17:37:43;102.53;;;40.20;;
64873;SDS011;51367;45.204;38.576;2022-11-14T17:40:27;98.28;;;39.90;;
64873;SDS011;51367;45.204;38.576;2022-11-14T17:43:15;89.68;;;41.95;;
64873;SDS011;51367;45.204;38.576;2022-11-14T17:46:00;127.78;;;39.05;;
64873;SDS011;51367;45.204;38.576;2022-11-14T17:48:46;64.00;;;35.75;;
64873;SDS011;51367;45.204;38.576;2022-11-14T17:51:30;66.22;;;32.95;;
64873;SDS011;51367;45.204;38.576;2022-11-14T17:54:15;58.97;;;30.92;;
64873;SDS011;51367;45.204;38.576;2022-11-14T17:56:59;54.15;;;24.17;;
64873;SDS011;51367;45.204;38.576;2022-11-14T17:59:44;67.25;;;32.63;;
64873;SDS011;51367;45.204;38.576;2022-11-14T18:02:29;65.32;;;27.20;;
64873;SDS011;51367;45.204;38.576;2022-11-14T18:05:14;38.22;;;24.90;;
64873;SDS011;51367;45.204;38.576;2022-11-14T18:07:59;48.38;;;29.27;;
64873;SDS011;51367;45.204;38.576;2022-11-14T18:10:44;58.20;;;28.42;;
64873;SDS011;51367;45.204;38.576;2022-11-14T18:13:28;83.63;;;36.10;;
64873;SDS011;51367;45.204;38.576;2022-11-14T18:16:15;85.97;;;36.80;;